Weather

Other Local Aerodome WX Info

Adelaide

TAF YPAD 192320Z 2000/2106 01018G30KT CAVOK FM200200 34022G35KT 9000 HZ NSC FM200900 36018KT CAVOK FM201300 02012KT CAVOK FM201700 30014KT CAVOK FM201900 23015KT CAVOK FM202100 23016KT 9999 BKN020 FM210300 22014KT CAVOK RMK T 34 35 36 34 Q 1006 1004 1001 999

Parafield

TAF YPPF 192307Z 2000/2012 01018G30KT CAVOK FM200200 34022G35KT 9000 HZ NSC FM200900 36018KT CAVOK RMK T 39 40 41 37 Q 1006 1004 1001 1000

Murray Bridge

TAF YMBD 200006Z 2002/2014 33018G28KT CAVOK FM200900 33012KT CAVOK FM201400 01012KT CAVOK RMK FM200200 MOD TURB BLW 5000FT TL201200 T 41 43 40 33 Q 1004 1002 1000 1001

Kingscote

TAF AMD YKSC 192254Z 1922/2012 02008KT CAVOK FM200000 36015G25KT CAVOK FM200300 35022G38KT CAVOK FM200900 30010KT CAVOK RMK FM192200 MOD TURB BLW 5000FT TL200900 T 27 32 37 36 Q 1006 1004 1002 998